Time;durP1;ratioP1;P1;durP2;ratioP2;P2;SDS_P1;SDS_P2;PMS_P1;PMS_P2;Temp;Humidity;BMP_temperature;BMP_pressure;BME280_temperature;BME280_humidity;BME280_pressure;Samples;Min_cycle;Max_cycle;Signal;HPM_P1;HPM_P2
2021/12/07 03:26:27;;;;;;;12.00;8.02;;;9.40;86.70;;;;;;5056525;28;20032;-77
2021/12/07 03:28:57;;;;;;;10.65;7.53;;;9.40;86.70;;;;;;5054790;28;20025;-77
2021/12/07 03:31:25;;;;;;;10.38;7.57;;;9.40;86.80;;;;;;5055024;28;20035;-77
2021/12/07 03:33:53;;;;;;;11.45;8.52;;;9.40;86.80;;;;;;5056076;28;20023;-77
2021/12/07 03:36:20;;;;;;;10.50;7.45;;;9.40;86.80;;;;;;5072558;28;20032;-78
2021/12/07 03:38:46;;;;;;;10.73;7.78;;;9.40;86.80;;;;;;5074667;28;20419;-77
2021/12/07 03:41:11;;;;;;;11.40;8.18;;;9.50;86.90;;;;;;5074809;28;20020;-77
2021/12/07 03:43:38;;;;;;;11.07;7.85;;;9.40;86.90;;;;;;5075944;28;20074;-78
2021/12/07 03:46:04;;;;;;;10.48;7.63;;;9.40;87.00;;;;;;5074782;28;20024;-78
2021/12/07 03:48:30;;;;;;;11.18;7.50;;;9.40;87.00;;;;;;5074756;28;20039;-76
2021/12/07 03:50:55;;;;;;;10.55;7.53;;;9.40;86.90;;;;;;5074458;28;20025;-77
2021/12/07 03:53:21;;;;;;;10.70;7.15;;;9.40;86.90;;;;;;5075876;28;20020;-77
2021/12/07 03:55:47;;;;;;;10.60;7.30;;;9.40;87.00;;;;;;5074754;28;20381;-77
2021/12/07 03:58:13;;;;;;;10.23;7.28;;;9.40;87.00;;;;;;5076717;28;20025;-79
2021/12/07 04:00:45;;;;;;;10.65;7.75;;;9.40;87.00;;;;;;5075344;28;20472;-79
2021/12/07 04:03:13;;;;;;;10.30;7.78;;;9.40;87.00;;;;;;5075537;28;20042;-78
2021/12/07 04:05:53;;;;;;;12.23;7.38;;;9.40;87.10;;;;;;5075305;28;20483;-78
2021/12/07 04:08:23;;;;;;;10.15;7.47;;;9.40;87.10;;;;;;5076469;28;20025;-79
2021/12/07 04:10:49;;;;;;;10.23;7.35;;;9.40;87.10;;;;;;5074775;28;20024;-78
2021/12/07 04:13:15;;;;;;;10.95;7.57;;;9.40;87.10;;;;;;5075058;28;20029;-79
2021/12/07 04:15:41;;;;;;;10.35;6.63;;;9.40;87.20;;;;;;5038321;28;20043;-78
2021/12/07 04:18:07;;;;;;;10.50;7.43;;;9.40;87.10;;;;;;5056558;28;20024;-77
2021/12/07 04:20:33;;;;;;;10.60;7.72;;;9.40;87.20;;;;;;5056217;28;20025;-79
2021/12/07 04:22:58;;;;;;;10.30;7.35;;;9.40;87.10;;;;;;5037916;28;20468;-78
2021/12/07 04:25:25;;;;;;;9.68;6.90;;;9.40;86.70;;;;;;5054956;28;20511;-78
2021/12/07 04:27:54;;;;;;;9.27;6.93;;;9.40;86.70;;;;;;5056370;28;20028;-77
2021/12/07 04:30:23;;;;;;;11.88;7.75;;;9.50;86.60;;;;;;5050058;28;20134;-78
2021/12/07 04:32:49;;;;;;;10.52;7.07;;;9.50;86.60;;;;;;5035397;28;20128;-77
2021/12/07 04:35:16;;;;;;;10.35;6.95;;;9.50;86.50;;;;;;5017638;28;20083;-78
2021/12/07 04:37:41;;;;;;;8.77;6.75;;;9.60;86.40;;;;;;5035533;28;20056;-77
2021/12/07 04:40:10;;;;;;;10.38;7.20;;;9.60;86.40;;;;;;5017364;28;20018;-77
2021/12/07 04:42:36;;;;;;;10.40;7.55;;;9.60;86.30;;;;;;5017729;28;20492;-78
2021/12/07 04:45:06;;;;;;;10.32;7.47;;;9.60;86.20;;;;;;5017406;28;20080;-78
2021/12/07 04:47:44;;;;;;;9.38;6.63;;;9.60;86.20;;;;;;5035248;28;20025;-78
2021/12/07 04:58:26;;;;;;;10.07;7.38;;;9.60;86.20;;;;;;5035071;28;20052;-77
2021/12/07 05:00:52;;;;;;;10.07;7.10;;;9.60;86.10;;;;;;5016809;28;20128;-77
2021/12/07 05:03:18;;;;;;;10.38;7.15;;;9.60;86.10;;;;;;5016760;28;20017;-77
2021/12/07 05:05:48;;;;;;;10.10;6.82;;;9.60;86.10;;;;;;5016663;28;20404;-77
2021/12/07 05:08:18;;;;;;;10.13;7.18;;;9.60;86.10;;;;;;5034293;28;20400;-77
2021/12/07 05:11:22;;;;;;;9.80;7.07;;;9.60;86.10;;;;;;5034050;28;20022;-77
2021/12/07 05:24:14;;;;;;;9.18;6.90;;;9.60;86.20;;;;;;5054231;28;20036;-78
2021/12/07 05:37:51;;;;;;;10.95;7.60;;;9.60;86.30;;;;;;5053675;28;20025;-78
2021/12/07 05:40:20;;;;;;;10.52;7.60;;;9.60;86.30;;;;;;5051054;28;20078;-77
2021/12/07 05:42:47;;;;;;;10.40;7.72;;;9.50;86.50;;;;;;5051428;28;20025;-77
2021/12/07 05:45:24;;;;;;;9.63;7.75;;;9.50;87.10;;;;;;5048276;28;20071;-77
2021/12/07 05:47:50;;;;;;;12.15;8.68;;;9.50;87.30;;;;;;5041346;28;20035;-76
2021/12/07 05:50:19;;;;;;;10.50;8.07;;;9.40;87.40;;;;;;5051974;28;20040;-77
2021/12/07 05:52:45;;;;;;;11.32;8.10;;;9.40;87.50;;;;;;5052737;28;20122;-78
2021/12/07 05:55:11;;;;;;;10.77;8.13;;;9.40;87.60;;;;;;5028303;28;20352;-78
2021/12/07 05:57:37;;;;;;;11.07;8.60;;;9.40;87.70;;;;;;5030333;28;20742;-79
2021/12/07 06:00:06;;;;;;;10.80;8.07;;;9.30;87.70;;;;;;5031134;28;20440;-79
2021/12/07 06:02:32;;;;;;;10.18;7.80;;;9.30;87.60;;;;;;5029337;28;20021;-79
2021/12/07 06:04:57;;;;;;;10.50;8.23;;;9.30;87.60;;;;;;5029448;28;20477;-79
2021/12/07 06:07:23;;;;;;;11.30;8.07;;;9.30;87.60;;;;;;5028834;28;20025;-79
2021/12/07 06:09:49;;;;;;;10.05;7.90;;;9.30;87.60;;;;;;5029056;28;20041;-75
2021/12/07 06:12:14;;;;;;;11.25;8.90;;;9.40;87.60;;;;;;5038914;28;20021;-78
2021/12/07 06:14:44;;;;;;;10.43;7.60;;;9.30;87.50;;;;;;5048010;28;20642;-77
2021/12/07 06:17:11;;;;;;;11.20;8.15;;;9.40;87.50;;;;;;5050273;28;20017;-77
2021/12/07 06:19:37;;;;;;;11.07;8.88;;;9.30;87.50;;;;;;5048467;28;20028;-77
2021/12/07 06:22:05;;;;;;;10.73;8.10;;;9.40;87.50;;;;;;5047535;28;20071;-77
2021/12/07 06:24:31;;;;;;;11.18;8.32;;;9.40;87.50;;;;;;5048792;28;20025;-77
2021/12/07 06:26:57;;;;;;;10.45;8.48;;;9.40;87.50;;;;;;5048287;28;20024;-76
2021/12/07 06:29:23;;;;;;;11.48;8.55;;;9.30;87.40;;;;;;5048752;28;20071;-79
2021/12/07 06:31:49;;;;;;;16.20;8.65;;;9.40;87.50;;;;;;5049385;28;20028;-79
2021/12/07 06:34:15;;;;;;;12.15;8.35;;;9.40;87.00;;;;;;5049506;28;20025;-80
2021/12/07 06:36:41;;;;;;;11.23;8.05;;;9.40;87.00;;;;;;5043456;28;20378;-80
2021/12/07 06:39:08;;;;;;;11.95;8.27;;;9.40;87.10;;;;;;5030229;28;20032;-80
2021/12/07 06:41:34;;;;;;;11.20;8.35;;;9.40;87.10;;;;;;5028835;28;20030;-81
2021/12/07 06:44:00;;;;;;;11.43;8.60;;;9.40;87.30;;;;;;5045413;28;20033;-81
2021/12/07 06:46:26;;;;;;;11.90;8.48;;;9.40;87.80;;;;;;5045231;28;20036;-79
2021/12/07 06:48:51;;;;;;;10.60;8.30;;;9.40;87.90;;;;;;5027880;28;20026;-77
2021/12/07 06:51:17;;;;;;;16.50;9.70;;;9.30;87.30;;;;;;5028864;28;20120;-76
2021/12/07 06:53:43;;;;;;;29.15;10.20;;;9.30;85.50;;;;;;5028249;28;20025;-79
2021/12/07 06:56:09;;;;;;;16.33;9.00;;;9.40;85.70;;;;;;5044955;28;20112;-79
2021/12/07 06:58:36;;;;;;;17.70;9.57;;;9.40;84.80;;;;;;5027746;28;20108;-79
2021/12/07 07:01:06;;;;;;;17.38;9.60;;;9.40;84.00;;;;;;5027785;28;20083;-77
2021/12/07 07:03:32;;;;;;;15.70;9.30;;;9.30;84.20;;;;;;5028379;28;20398;-76
2021/12/07 07:05:58;;;;;;;16.48;9.70;;;9.30;84.90;;;;;;5027123;28;20026;-77
2021/12/07 07:08:24;;;;;;;17.15;9.82;;;9.30;85.30;;;;;;5028295;28;20030;-75
2021/12/07 07:10:49;;;;;;;12.15;9.10;;;9.30;85.80;;;;;;5028271;28;20029;-78
2021/12/07 07:13:15;;;;;;;13.27;9.38;;;9.30;86.10;;;;;;5028578;28;20026;-76
2021/12/07 07:15:41;;;;;;;16.52;9.50;;;9.30;86.30;;;;;;4990989;28;20061;-78
2021/12/07 07:18:06;;;;;;;11.88;8.63;;;9.30;86.40;;;;;;5008226;28;20901;-76
2021/12/07 07:20:32;;;;;;;17.25;9.23;;;9.40;86.50;;;;;;4990918;28;20026;-77
2021/12/07 07:22:58;;;;;;;13.98;9.77;;;9.30;86.50;;;;;;4991239;28;20125;-77
2021/12/07 07:25:23;;;;;;;12.77;9.30;;;9.30;86.50;;;;;;5008872;28;20053;-77
2021/12/07 07:27:49;;;;;;;13.88;9.60;;;9.40;86.50;;;;;;4990939;28;20083;-76
2021/12/07 07:30:18;;;;;;;13.30;9.35;;;9.40;86.60;;;;;;4990512;28;20555;-77
2021/12/07 07:32:45;;;;;;;15.70;10.55;;;9.40;86.60;;;;;;5022207;28;20037;-78
2021/12/07 07:35:13;;;;;;;14.88;10.20;;;9.40;86.60;;;;;;5010404;28;20025;-78
2021/12/07 07:37:39;;;;;;;13.00;9.82;;;9.40;86.70;;;;;;5010837;28;20124;-78
2021/12/07 07:40:07;;;;;;;12.90;9.80;;;9.40;86.70;;;;;;5022494;28;20265;-79
2021/12/07 07:42:34;;;;;;;14.88;9.93;;;9.40;86.70;;;;;;5024239;28;20747;-77
2021/12/07 07:45:00;;;;;;;13.70;10.13;;;9.40;86.80;;;;;;5007309;28;20420;-78
2021/12/07 07:47:25;;;;;;;19.25;10.77;;;9.40;86.90;;;;;;5008485;28;20385;-78
2021/12/07 07:49:51;;;;;;;14.10;10.27;;;9.40;86.90;;;;;;5007932;28;20052;-77
2021/12/07 07:52:17;;;;;;;14.40;10.05;;;9.40;86.90;;;;;;5025626;28;20038;-78
2021/12/07 07:54:42;;;;;;;15.63;11.15;;;9.40;86.80;;;;;;5025820;28;20056;-76
2021/12/07 07:57:08;;;;;;;13.77;10.85;;;9.40;86.80;;;;;;5007903;28;20024;-78
2021/12/07 07:59:35;;;;;;;16.33;10.38;;;9.40;86.80;;;;;;5025254;28;20034;-79
2021/12/07 08:02:01;;;;;;;14.68;10.95;;;9.40;86.80;;;;;;5009051;28;20400;-79
2021/12/07 08:04:26;;;;;;;13.40;10.52;;;9.40;86.90;;;;;;5008635;28;20029;-78
2021/12/07 08:06:52;;;;;;;16.20;11.27;;;9.40;86.90;;;;;;5013179;28;20025;-78
2021/12/07 08:09:17;;;;;;;15.32;11.57;;;9.30;86.90;;;;;;5013459;28;20036;-77
2021/12/07 08:11:43;;;;;;;17.73;11.70;;;9.30;86.90;;;;;;5014095;28;20128;-76
2021/12/07 08:14:09;;;;;;;15.30;11.57;;;9.40;87.00;;;;;;5024863;28;20071;-78
2021/12/07 08:16:34;;;;;;;15.57;11.75;;;9.30;86.90;;;;;;5050729;28;20048;-78
2021/12/07 08:19:01;;;;;;;14.98;11.40;;;9.40;86.80;;;;;;5047382;28;20365;-75
2021/12/07 08:21:27;;;;;;;17.77;11.68;;;9.40;86.80;;;;;;5049338;28;20024;-78
2021/12/07 08:23:53;;;;;;;16.05;11.75;;;9.40;86.80;;;;;;5048837;28;20075;-78
2021/12/07 08:26:21;;;;;;;15.23;11.40;;;9.40;86.90;;;;;;5048675;28;20029;-78
2021/12/07 08:28:47;;;;;;;17.40;11.68;;;9.40;87.00;;;;;;5047655;28;20059;-78
2021/12/07 08:31:14;;;;;;;17.27;11.82;;;9.40;87.00;;;;;;5048921;28;20025;-79
2021/12/07 08:33:40;;;;;;;17.13;12.40;;;9.40;87.00;;;;;;5047183;28;20036;-78
2021/12/07 08:36:06;;;;;;;16.85;11.63;;;9.40;87.00;;;;;;5050153;28;20385;-77
2021/12/07 08:38:31;;;;;;;15.40;11.68;;;9.40;87.00;;;;;;5049745;28;20384;-78
2021/12/07 08:40:58;;;;;;;16.92;12.30;;;9.30;86.90;;;;;;5042237;28;20120;-78
2021/12/07 08:43:26;;;;;;;16.73;12.60;;;9.30;86.90;;;;;;5049634;28;20067;-78
2021/12/07 08:45:53;;;;;;;15.95;12.00;;;9.40;87.00;;;;;;5049542;28;20119;-76
2021/12/07 08:48:20;;;;;;;15.52;11.95;;;9.30;86.80;;;;;;5049616;28;20029;-78
2021/12/07 08:50:46;;;;;;;19.08;12.25;;;9.40;86.80;;;;;;5049105;28;20190;-81
2021/12/07 08:53:14;;;;;;;16.35;11.65;;;9.40;86.80;;;;;;5046885;28;20118;-80
2021/12/07 09:01:13;;;;;;;18.77;12.75;;;9.30;86.80;;;;;;5046781;28;20128;-79
2021/12/07 09:03:38;;;;;;;15.45;12.05;;;9.40;86.90;;;;;;5045085;28;20028;-78
2021/12/07 09:06:04;;;;;;;16.52;12.30;;;9.30;86.80;;;;;;5046372;28;20102;-77
2021/12/07 09:08:29;;;;;;;18.17;12.25;;;9.30;86.80;;;;;;5045891;28;20083;-76
2021/12/07 09:10:55;;;;;;;16.88;12.30;;;9.40;86.80;;;;;;5047945;28;20032;-77
2021/12/07 09:13:23;;;;;;;16.83;12.68;;;9.30;86.80;;;;;;5047460;28;20515;-76
2021/12/07 09:15:50;;;;;;;16.65;12.18;;;9.40;86.90;;;;;;5046253;28;20033;-78
2021/12/07 09:18:16;;;;;;;17.13;12.18;;;9.30;86.80;;;;;;5046737;28;20496;-77
2021/12/07 09:20:41;;;;;;;17.85;12.20;;;9.40;86.90;;;;;;5045882;28;20029;-77
2021/12/07 09:23:07;;;;;;;15.32;11.48;;;9.40;87.00;;;;;;5046303;28;20169;-78
2021/12/07 09:25:33;;;;;;;16.15;11.65;;;9.40;87.10;;;;;;5046388;28;20025;-77
2021/12/07 09:27:58;;;;;;;16.40;11.68;;;9.40;87.00;;;;;;5046261;28;20048;-76
2021/12/07 09:30:24;;;;;;;17.50;12.30;;;9.30;87.00;;;;;;5046398;28;20032;-78
2021/12/07 09:32:50;;;;;;;17.70;12.27;;;9.40;87.10;;;;;;5046103;28;20028;-78
2021/12/07 09:35:17;;;;;;;17.73;12.57;;;9.40;87.10;;;;;;5045817;28;20033;-79
2021/12/07 09:37:43;;;;;;;15.55;12.52;;;9.40;87.20;;;;;;5047147;28;20071;-79
2021/12/07 09:40:14;;;;;;;17.95;12.10;;;9.40;87.30;;;;;;5045623;28;20032;-78
2021/12/07 09:42:40;;;;;;;16.98;11.82;;;9.40;87.30;;;;;;5046010;28;20029;-77
2021/12/07 09:45:11;;;;;;;17.48;11.80;;;9.40;87.20;;;;;;5045709;28;20507;-77
2021/12/07 09:47:37;;;;;;;17.38;12.02;;;9.40;87.20;;;;;;5047027;28;20036;-78
2021/12/07 09:50:05;;;;;;;17.30;11.88;;;9.40;87.10;;;;;;5046792;28;20040;-77
2021/12/07 09:52:31;;;;;;;15.73;10.85;;;9.40;87.10;;;;;;5045753;28;20068;-79
2021/12/07 09:54:57;;;;;;;15.70;11.57;;;9.40;87.00;;;;;;5045639;28;20033;-75
2021/12/07 09:57:23;;;;;;;15.90;11.25;;;9.40;87.00;;;;;;5045952;28;20055;-77
2021/12/07 09:59:49;;;;;;;16.80;11.85;;;9.40;87.00;;;;;;5044948;28;20033;-80
2021/12/07 10:02:15;;;;;;;17.30;11.57;;;9.40;87.00;;;;;;5045687;28;20029;-78
2021/12/07 10:04:41;;;;;;;16.83;11.32;;;9.40;86.90;;;;;;5046766;28;20078;-77
2021/12/07 10:07:08;;;;;;;18.20;11.93;;;9.40;86.80;;;;;;5045583;28;20039;-78
2021/12/07 10:09:35;;;;;;;17.80;11.82;;;9.40;86.80;;;;;;5046688;28;20582;-76
2021/12/07 10:12:01;;;;;;;18.35;11.73;;;9.40;86.80;;;;;;5045883;28;20024;-76
2021/12/07 10:14:39;;;;;;;16.48;11.32;;;9.40;86.80;;;;;;5046115;28;20120;-78
2021/12/07 10:17:05;;;;;;;15.35;10.82;;;9.40;86.80;;;;;;5045368;28;20484;-75
2021/12/07 10:19:34;;;;;;;18.05;11.32;;;9.40;86.80;;;;;;5044766;28;20082;-77
2021/12/07 10:22:08;;;;;;;14.73;10.55;;;9.40;86.80;;;;;;5045610;28;20021;-78
2021/12/07 10:24:40;;;;;;;16.02;11.63;;;9.40;86.80;;;;;;5045704;28;20515;-79
2021/12/07 10:27:07;;;;;;;16.70;11.75;;;9.40;86.90;;;;;;5044616;28;20036;-77
2021/12/07 10:29:33;;;;;;;16.40;10.70;;;9.40;86.80;;;;;;5046400;28;20447;-77
2021/12/07 10:32:02;;;;;;;17.85;11.15;;;9.40;86.80;;;;;;5045051;28;20028;-77
2021/12/07 10:34:30;;;;;;;17.75;10.80;;;9.40;86.70;;;;;;5045288;28;20025;-77
2021/12/07 10:37:08;;;;;;;18.30;10.77;;;9.40;86.50;;;;;;5048680;28;20488;-78
2021/12/07 10:39:50;;;;;;;16.77;10.82;;;9.50;86.50;;;;;;5044248;28;20017;-77
2021/12/07 10:42:20;;;;;;;16.38;10.27;;;9.40;86.50;;;;;;5044796;28;20021;-79
2021/12/07 10:44:46;;;;;;;16.55;10.88;;;9.40;86.50;;;;;;5060865;28;20055;-80
2021/12/07 10:47:20;;;;;;;15.70;10.95;;;9.40;86.40;;;;;;5047030;28;20051;-80
2021/12/07 10:49:47;;;;;;;17.50;10.45;;;9.40;86.40;;;;;;5048489;28;20055;-80
2021/12/07 10:52:17;;;;;;;16.55;10.55;;;9.40;86.20;;;;;;5050359;28;20068;-81
2021/12/07 10:54:56;;;;;;;16.23;10.32;;;9.40;86.20;;;;;;5049266;28;20021;-79
2021/12/07 10:57:39;;;;;;;17.70;11.15;;;9.40;86.20;;;;;;5049568;28;20491;-82
2021/12/07 11:00:20;;;;;;;16.83;11.07;;;9.40;86.10;;;;;;5039029;28;20026;-79
2021/12/07 11:02:54;;;;;;;17.63;11.05;;;9.40;86.00;;;;;;5029826;28;20036;-77
2021/12/07 11:05:28;;;;;;;20.27;11.70;;;9.40;86.10;;;;;;5030623;28;20044;-81
2021/12/07 11:07:54;;;;;;;19.95;11.80;;;9.40;86.10;;;;;;5029927;28;20033;-80
2021/12/07 11:10:29;;;;;;;21.33;12.25;;;9.40;86.10;;;;;;5032496;28;20025;-80
2021/12/07 11:13:07;;;;;;;19.58;11.38;;;9.40;86.10;;;;;;5034513;28;20304;-80
2021/12/07 11:15:48;;;;;;;18.85;12.20;;;9.40;86.20;;;;;;5032388;28;20087;-82
2021/12/07 11:18:14;;;;;;;19.17;12.30;;;9.40;86.30;;;;;;5032846;28;20025;-80
2021/12/07 11:20:40;;;;;;;17.77;11.18;;;9.40;86.30;;;;;;5033795;28;20400;-79
2021/12/07 11:23:20;;;;;;;21.80;13.40;;;9.40;86.30;;;;;;5032823;28;20128;-81
2021/12/07 11:31:40;;;;;;;20.38;12.60;;;9.40;86.30;;;;;;4991811;28;20419;-79
2021/12/07 11:34:17;;;;;;;17.83;11.55;;;9.40;86.20;;;;;;5030900;28;20068;-80
2021/12/07 11:36:50;;;;;;;22.35;13.32;;;9.40;86.20;;;;;;5036978;28;20025;-82
2021/12/07 11:39:23;;;;;;;19.27;12.60;;;9.40;86.20;;;;;;5036377;28;20022;-80
2021/12/07 11:41:56;;;;;;;19.70;12.30;;;9.40;86.20;;;;;;5038446;28;20022;-81
2021/12/07 11:44:22;;;;;;;18.67;11.98;;;9.40;86.10;;;;;;5038464;28;20030;-81
2021/12/07 11:46:49;;;;;;;19.83;11.93;;;9.40;86.10;;;;;;5038431;28;20420;-80
2021/12/07 11:49:20;;;;;;;17.08;11.73;;;9.40;86.10;;;;;;5039305;28;20392;-79
2021/12/07 11:51:47;;;;;;;19.20;12.33;;;9.40;86.10;;;;;;5037872;28;20481;-79
2021/12/07 11:54:14;;;;;;;18.58;11.93;;;9.40;86.20;;;;;;5037643;28;20124;-83
2021/12/07 11:56:41;;;;;;;16.48;11.65;;;9.40;86.20;;;;;;5039247;28;20033;-80
2021/12/07 11:59:08;;;;;;;17.77;12.10;;;9.40;86.20;;;;;;5038214;28;20022;-80
2021/12/07 12:01:33;;;;;;;17.88;11.02;;;9.40;86.20;;;;;;5038858;28;20072;-80
2021/12/07 12:04:00;;;;;;;17.10;11.57;;;9.40;86.30;;;;;;5036939;28;20025;-80
2021/12/07 12:06:26;;;;;;;18.33;10.88;;;9.40;86.30;;;;;;5036986;28;20413;-80
2021/12/07 12:08:53;;;;;;;17.90;10.90;;;9.40;86.30;;;;;;5035976;28;20072;-79
2021/12/07 12:11:33;;;;;;;17.27;10.50;;;9.40;86.30;;;;;;5036739;28;20021;-80
2021/12/07 12:14:26;;;;;;;16.20;10.65;;;9.40;86.30;;;;;;5036300;28;20045;-79
2021/12/07 12:16:58;;;;;;;17.10;10.68;;;9.40;86.30;;;;;;5036448;28;20425;-81
2021/12/07 12:20:02;;;;;;;16.70;10.77;;;9.40;86.30;;;;;;5037499;28;20025;-79
2021/12/07 12:22:46;;;;;;;19.50;11.02;;;9.40;86.30;;;;;;5036029;28;20026;-79
2021/12/07 12:25:22;;;;;;;16.02;10.90;;;9.40;86.30;;;;;;5036934;28;20056;-79
2021/12/07 12:27:49;;;;;;;16.95;11.15;;;9.40;86.30;;;;;;5035880;28;20453;-79
2021/12/07 12:30:15;;;;;;;18.17;11.38;;;9.40;86.20;;;;;;5036622;28;20067;-80
2021/12/07 12:32:46;;;;;;;17.98;11.98;;;9.40;86.10;;;;;;5036294;28;20404;-79
2021/12/07 12:35:13;;;;;;;20.50;13.13;;;9.50;86.10;;;;;;5035105;28;20132;-80
2021/12/07 12:37:48;;;;;;;18.77;12.27;;;9.40;86.00;;;;;;5034768;28;20029;-79
2021/12/07 12:40:40;;;;;;;19.45;12.73;;;9.40;86.00;;;;;;5035780;28;20017;-79
2021/12/07 12:43:05;;;;;;;19.83;13.07;;;9.40;86.00;;;;;;5048251;28;20539;-79
2021/12/07 12:45:35;;;;;;;20.17;13.23;;;9.40;86.00;;;;;;5034951;28;20037;-79
2021/12/07 12:48:17;;;;;;;15.93;11.18;;;9.40;86.10;;;;;;5034087;28;20059;-78
2021/12/07 12:50:43;;;;;;;22.30;13.60;;;9.40;86.30;;;;;;5033503;28;20120;-78
2021/12/07 12:53:16;;;;;;;18.05;13.00;;;9.50;86.30;;;;;;5034021;28;20500;-80
2021/12/07 12:55:49;;;;;;;19.95;13.00;;;9.50;86.10;;;;;;5035450;28;20076;-78
2021/12/07 12:58:38;;;;;;;23.05;14.00;;;9.50;85.90;;;;;;5033955;28;20087;-80
2021/12/07 13:01:21;;;;;;;22.80;14.52;;;9.50;85.80;;;;;;5034221;28;20024;-79
2021/12/07 13:04:02;;;;;;;20.70;14.88;;;9.50;85.70;;;;;;5033549;28;20025;-79
2021/12/07 13:06:34;;;;;;;20.77;14.60;;;9.50;85.70;;;;;;5035494;28;20025;-79
2021/12/07 13:09:00;;;;;;;;;;;9.50;85.60;;;;;;5033994;28;20067;-79
2021/12/07 13:11:41;;;;;;;21.70;14.20;;;9.60;85.60;;;;;;5033375;28;20316;-80
2021/12/07 13:14:27;;;;;;;23.77;14.60;;;9.60;85.60;;;;;;5033160;28;20029;-81
2021/12/07 13:17:02;;;;;;;21.83;14.73;;;9.50;85.60;;;;;;5033436;28;20354;-79
2021/12/07 13:19:29;;;;;;;22.55;15.27;;;9.60;85.60;;;;;;5033234;28;20032;-82
2021/12/07 13:22:01;;;;;;;22.13;16.08;;;9.60;85.60;;;;;;5032935;28;20025;-78
2021/12/07 13:24:31;;;;;;;;;;;9.50;85.60;;;;;;5033589;28;20071;-79
2021/12/07 13:26:56;;;;;;;21.35;15.27;;;9.60;85.60;;;;;;5049200;28;19909;-79
2021/12/07 13:29:25;;;;;;;21.40;15.35;;;9.50;85.60;;;;;;5032575;28;20029;-78
2021/12/07 13:31:56;;;;;;;20.73;15.18;;;9.60;85.70;;;;;;5034567;28;20025;-80
2021/12/07 13:34:31;;;;;;;23.08;15.73;;;9.50;85.60;;;;;;5032556;28;20030;-79
2021/12/07 13:37:02;;;;;;;22.85;15.95;;;9.60;85.60;;;;;;5032570;28;20030;-82
2021/12/07 13:39:29;;;;;;;22.30;15.93;;;9.60;85.70;;;;;;5033654;28;20026;-81
2021/12/07 13:42:16;;;;;;;22.38;15.65;;;9.60;85.70;;;;;;5039029;28;20029;-83
2021/12/07 13:44:54;;;;;;;23.13;16.75;;;9.60;85.70;;;;;;5037418;28;20034;-80
2021/12/07 13:47:26;;;;;;;21.90;15.65;;;9.60;85.70;;;;;;5037064;28;20036;-80
2021/12/07 13:49:54;;;;;;;;;;;9.50;85.70;;;;;;5038057;28;20021;-81
2021/12/07 13:52:22;;;;;;;23.27;15.73;;;9.50;85.80;;;;;;5053374;28;20024;-80
2021/12/07 13:54:52;;;;;;;21.20;15.60;;;9.50;86.20;;;;;;5037588;28;20033;-80
2021/12/07 13:57:30;;;;;;;21.15;15.43;;;9.50;86.20;;;;;;5037202;28;20026;-80
2021/12/07 14:00:07;;;;;;;21.90;15.90;;;9.40;86.50;;;;;;5035430;28;20439;-80
2021/12/07 14:02:34;;;;;;;23.60;15.65;;;9.40;86.70;;;;;;5034840;28;20017;-80
2021/12/07 14:05:41;;;;;;;23.30;16.58;;;9.40;86.80;;;;;;5035890;28;20056;-79
2021/12/07 14:08:09;;;;;;;22.45;16.13;;;9.40;87.00;;;;;;5035996;28;20492;-79
2021/12/07 14:10:42;;;;;;;23.33;16.60;;;9.40;87.10;;;;;;5035015;28;20057;-79
2021/12/07 14:13:07;;;;;;;22.45;16.13;;;9.40;87.20;;;;;;5035945;28;20030;-79
2021/12/07 14:15:37;;;;;;;25.27;15.90;;;9.40;87.30;;;;;;5050179;28;20034;-80
2021/12/07 14:18:07;;;;;;;23.02;16.20;;;9.40;87.40;;;;;;5033945;28;20501;-80
2021/12/07 14:20:48;;;;;;;24.20;16.33;;;9.40;87.40;;;;;;5035602;28;20025;-79
2021/12/07 14:23:28;;;;;;;24.15;15.95;;;9.40;87.50;;;;;;5035448;28;20021;-79
2021/12/07 14:26:00;;;;;;;27.23;16.15;;;9.40;87.50;;;;;;5033517;28;20116;-79
2021/12/07 14:28:45;;;;;;;29.35;16.83;;;9.40;87.50;;;;;;5033717;28;20589;-80
2021/12/07 14:31:15;;;;;;;27.33;16.65;;;9.30;87.60;;;;;;5033415;28;20441;-79
2021/12/07 14:33:47;;;;;;;25.13;15.73;;;9.40;87.70;;;;;;5033359;28;20032;-79
2021/12/07 14:36:15;;;;;;;22.38;15.65;;;9.30;87.70;;;;;;5033193;28;20112;-79
2021/12/07 14:38:41;;;;;;;25.17;16.50;;;9.40;87.80;;;;;;5033043;28;20060;-78
2021/12/07 14:41:10;;;;;;;23.88;15.75;;;9.30;87.80;;;;;;5032535;28;20045;-79
2021/12/07 14:43:37;;;;;;;21.13;14.98;;;9.30;87.90;;;;;;5032430;28;20017;-79
2021/12/07 14:46:05;;;;;;;23.95;16.67;;;9.30;87.90;;;;;;5034097;28;20037;-79
2021/12/07 14:48:31;;;;;;;25.38;15.82;;;9.40;88.00;;;;;;5032992;28;20111;-80
2021/12/07 14:51:18;;;;;;;23.27;15.82;;;9.40;88.00;;;;;;5033680;28;20033;-79
2021/12/07 14:53:51;;;;;;;23.05;16.90;;;9.30;88.00;;;;;;5033820;28;20029;-80
2021/12/07 14:56:18;;;;;;;23.92;16.05;;;9.30;88.00;;;;;;5036479;28;20104;-80
2021/12/07 14:58:45;;;;;;;22.42;16.02;;;9.40;88.10;;;;;;5035358;28;20440;-80
2021/12/07 15:01:33;;;;;;;23.48;16.85;;;9.30;88.10;;;;;;5035415;28;20021;-82
2021/12/07 15:04:03;;;;;;;23.63;15.80;;;9.30;88.20;;;;;;5035382;28;20018;-82
2021/12/07 15:06:31;;;;;;;23.27;15.32;;;9.30;88.20;;;;;;5035058;28;20060;-83
2021/12/07 15:09:05;;;;;;;22.80;15.32;;;9.40;88.20;;;;;;5034253;28;20382;-80
2021/12/07 15:11:34;;;;;;;22.23;13.73;;;9.30;88.10;;;;;;5034682;28;20030;-81
2021/12/07 15:14:06;;;;;;;18.65;12.68;;;9.30;86.40;;;;;;5039401;28;20037;-80
2021/12/07 15:16:32;;;;;;;22.42;12.23;;;9.30;84.60;;;;;;5040661;28;20033;-80
2021/12/07 15:18:57;;;;;;;20.13;12.43;;;9.30;85.10;;;;;;5038927;28;20087;-82
2021/12/07 15:21:28;;;;;;;24.80;12.82;;;9.30;85.50;;;;;;5038946;28;20021;-79
2021/12/07 15:24:01;;;;;;;20.25;14.05;;;9.30;85.90;;;;;;5037323;28;20431;-78
2021/12/07 15:26:29;;;;;;;21.63;13.05;;;9.30;86.30;;;;;;5036257;28;20025;-78
2021/12/07 15:28:57;;;;;;;21.40;12.90;;;9.30;86.60;;;;;;5037703;28;20026;-77
2021/12/07 15:31:25;;;;;;;18.35;12.50;;;9.30;86.90;;;;;;5036257;28;20400;-79
2021/12/07 15:33:52;;;;;;;18.70;12.23;;;9.30;86.90;;;;;;5035878;28;20024;-79
2021/12/07 15:36:23;;;;;;;19.80;12.13;;;9.30;86.90;;;;;;5037955;28;20035;-78
2021/12/07 15:39:14;;;;;;;19.20;12.05;;;9.30;86.90;;;;;;5036459;28;20018;-80
2021/12/07 15:41:43;;;;;;;17.50;12.30;;;9.30;86.90;;;;;;5037252;28;20025;-82
2021/12/07 15:44:09;;;;;;;19.42;12.23;;;9.30;86.80;;;;;;5035763;28;20076;-81
2021/12/07 15:46:50;;;;;;;17.13;11.63;;;9.30;86.70;;;;;;5035806;28;20152;-79
2021/12/07 15:49:29;;;;;;;17.85;11.90;;;9.30;86.70;;;;;;5035410;28;20018;-80
2021/12/07 15:51:58;;;;;;;18.13;11.27;;;9.30;86.80;;;;;;5035564;28;20117;-80
2021/12/07 15:54:24;;;;;;;17.65;11.60;;;9.30;86.80;;;;;;5035055;28;20025;-79
2021/12/07 15:56:57;;;;;;;17.63;11.27;;;9.30;86.80;;;;;;5035616;28;20486;-79
2021/12/07 15:59:23;;;;;;;20.00;11.27;;;9.30;86.80;;;;;;5036885;28;20017;-79
2021/12/07 16:01:48;;;;;;;17.42;11.10;;;9.30;86.80;;;;;;5035562;28;20048;-79
2021/12/07 16:04:25;;;;;;;18.30;10.73;;;9.30;86.90;;;;;;5036924;28;20024;-78
2021/12/07 16:06:51;;;;;;;16.40;11.13;;;9.40;86.20;;;;;;5036049;28;20021;-78
2021/12/07 16:09:18;;;;;;;16.02;10.23;;;9.40;86.40;;;;;;5035779;28;20378;-79
2021/12/07 16:11:44;;;;;;;16.50;9.60;;;9.40;85.90;;;;;;5034642;28;20037;-77
2021/12/07 16:14:10;;;;;;;16.15;10.25;;;9.30;85.50;;;;;;5035864;28;20493;-78
2021/12/07 16:16:39;;;;;;;16.95;9.75;;;9.30;85.60;;;;;;5034236;28;20060;-77
2021/12/07 16:19:06;;;;;;;14.18;9.63;;;9.30;85.90;;;;;;5034129;28;20481;-78
2021/12/07 16:21:33;;;;;;;16.40;10.18;;;9.40;86.10;;;;;;5035541;28;20091;-77
2021/12/07 16:24:00;;;;;;;17.45;9.75;;;9.30;86.70;;;;;;5033779;28;20377;-77
2021/12/07 16:26:26;;;;;;;17.38;9.68;;;9.30;86.20;;;;;;5034638;28;20032;-80
2021/12/07 16:28:55;;;;;;;16.98;9.77;;;9.30;86.30;;;;;;5033857;28;20489;-78
2021/12/07 16:31:22;;;;;;;15.93;10.02;;;9.30;86.40;;;;;;5033900;28;20119;-77
2021/12/07 16:33:49;;;;;;;19.20;10.38;;;9.30;86.40;;;;;;5035073;28;20037;-77
2021/12/07 16:36:16;;;;;;;15.85;9.80;;;9.30;86.40;;;;;;5034344;28;20033;-79
2021/12/07 16:38:43;;;;;;;14.38;9.65;;;9.30;86.40;;;;;;5035217;28;20040;-75
2021/12/07 16:41:11;;;;;;;19.65;10.57;;;9.30;86.50;;;;;;5034190;28;20481;-79
2021/12/07 16:43:37;;;;;;;17.35;9.20;;;9.30;86.10;;;;;;5042408;28;20025;-79
2021/12/07 16:46:04;;;;;;;17.02;9.00;;;9.30;85.50;;;;;;5050375;28;20028;-79
2021/12/07 16:48:30;;;;;;;15.88;9.65;;;9.30;85.70;;;;;;5036857;28;20396;-79
2021/12/07 16:50:55;;;;;;;14.00;9.82;;;9.30;85.90;;;;;;5035397;28;20121;-80
2021/12/07 16:53:21;;;;;;;14.27;10.27;;;9.30;86.10;;;;;;5035129;28;20061;-79
2021/12/07 16:55:47;;;;;;;15.60;11.00;;;9.30;86.20;;;;;;5034059;28;20035;-79
2021/12/07 16:58:14;;;;;;;13.30;9.85;;;9.30;86.10;;;;;;5033524;28;20025;-82